createdAt,value
2023-02-09T00:01:18.979Z,4.97
2023-02-09T00:04:20.541Z,5.10
2023-02-09T00:07:22.096Z,5.43
2023-02-09T00:10:23.974Z,4.77
2023-02-09T00:13:26.743Z,4.85
2023-02-09T00:16:28.260Z,4.28
2023-02-09T00:19:32.284Z,4.68
2023-02-09T00:22:34.711Z,5.43
2023-02-09T00:25:39.713Z,4.30
2023-02-09T00:28:41.273Z,4.63
2023-02-09T00:31:43.598Z,4.67
2023-02-09T00:34:45.330Z,4.40
2023-02-09T00:37:46.900Z,4.97
2023-02-09T00:40:48.683Z,4.50
2023-02-09T00:43:50.262Z,4.75
2023-02-09T00:46:52.260Z,5.15
2023-02-09T00:49:54.426Z,4.78
2023-02-09T00:52:56.031Z,4.88
2023-02-09T00:55:59.885Z,4.38
2023-02-09T00:59:01.457Z,4.28
2023-02-09T01:02:03.829Z,4.73
2023-02-09T01:05:05.761Z,4.60
2023-02-09T01:08:07.455Z,4.38
2023-02-09T01:11:13.423Z,4.77
2023-02-09T01:14:16.940Z,4.70
2023-02-09T01:17:18.580Z,4.43
2023-02-09T01:20:20.137Z,4.75
2023-02-09T01:23:21.721Z,4.70
2023-02-09T01:26:23.530Z,4.35
2023-02-09T01:29:28.431Z,4.15
2023-02-09T01:32:30.458Z,4.50
2023-02-09T01:35:32.450Z,4.28
2023-02-09T01:38:34.935Z,4.20
2023-02-09T01:41:36.935Z,4.30
2023-02-09T01:44:39.826Z,3.63
2023-02-09T01:48:03.402Z,3.40
2023-02-09T01:51:06.044Z,4.00
2023-02-09T01:54:11.712Z,4.40
2023-02-09T01:57:19.077Z,4.63
2023-02-09T02:00:22.177Z,3.70
2023-02-09T02:03:29.082Z,4.10
2023-02-09T02:06:32.239Z,3.47
2023-02-09T02:09:34.293Z,4.15
2023-02-09T02:12:37.713Z,4.13
2023-02-09T02:15:51.189Z,3.95
2023-02-09T02:19:24.279Z,4.13
2023-02-09T02:22:58.841Z,3.83
2023-02-09T02:26:30.247Z,4.03
2023-02-09T02:30:03.115Z,3.95
2023-02-09T02:33:16.606Z,3.92
2023-02-09T02:37:01.268Z,4.60
2023-02-09T02:40:12.997Z,4.55
2023-02-09T02:43:35.918Z,4.75
2023-02-09T02:46:45.327Z,4.80
2023-02-09T02:50:14.930Z,3.97
2023-02-09T02:53:19.262Z,3.72
2023-02-09T02:56:31.025Z,4.35
2023-02-09T02:59:42.719Z,4.82
2023-02-09T03:02:50.054Z,4.38
2023-02-09T03:05:51.910Z,5.15
2023-02-09T03:08:56.130Z,5.10
2023-02-09T03:12:09.038Z,5.30
2023-02-09T03:15:16.820Z,5.30
2023-02-09T03:18:27.787Z,4.70
2023-02-09T03:21:47.797Z,4.65
2023-02-09T03:25:00.616Z,4.93
2023-02-09T03:28:18.257Z,5.57
2023-02-09T03:31:21.864Z,5.00
2023-02-09T03:34:23.670Z,4.90
2023-02-09T03:37:26.164Z,5.32
2023-02-09T03:40:29.150Z,5.30
2023-02-09T03:43:50.362Z,5.63
2023-02-09T03:46:52.877Z,4.50
2023-02-09T03:49:54.520Z,5.60
2023-02-09T03:52:56.500Z,3.97
2023-02-09T03:55:58.910Z,4.35
2023-02-09T03:59:01.086Z,4.88
2023-02-09T04:02:06.289Z,5.38
2023-02-09T04:05:08.840Z,4.90
2023-02-09T04:08:11.127Z,4.72
2023-02-09T04:11:12.666Z,4.80
2023-02-09T04:14:15.134Z,4.13
2023-02-09T04:17:17.567Z,5.13
2023-02-09T04:20:19.937Z,4.53
2023-02-09T04:23:21.469Z,4.60
2023-02-09T04:26:24.243Z,4.82
2023-02-09T04:29:27.071Z,5.65
2023-02-09T04:32:28.623Z,5.00
2023-02-09T04:35:30.597Z,4.88
2023-02-09T04:38:32.226Z,5.47
2023-02-09T04:41:34.175Z,5.27
2023-02-09T04:44:35.797Z,4.53
2023-02-09T04:47:37.825Z,4.32
2023-02-09T04:50:39.929Z,4.80
2023-02-09T04:53:41.695Z,4.30
2023-02-09T04:56:43.223Z,3.58
2023-02-09T04:59:45.610Z,5.03
2023-02-09T05:02:47.415Z,4.75
2023-02-09T05:05:48.943Z,4.90
2023-02-09T05:08:50.561Z,5.00
2023-02-09T05:11:52.120Z,4.80
2023-02-09T05:14:53.647Z,4.85
2023-02-09T05:17:56.124Z,5.38
2023-02-09T05:20:57.772Z,4.93
2023-02-09T05:23:59.833Z,5.30
2023-02-09T05:27:01.388Z,5.95
2023-02-09T05:30:03.812Z,5.38
2023-02-09T05:33:05.414Z,5.63
2023-02-09T05:36:09.572Z,5.18
2023-02-09T05:39:11.784Z,5.35
2023-02-09T05:42:16.467Z,4.93
2023-02-09T05:45:19.187Z,5.38
2023-02-09T05:48:20.743Z,6.15
2023-02-09T05:51:22.284Z,5.47
2023-02-09T05:54:24.278Z,6.70
2023-02-09T05:57:26.426Z,6.45
2023-02-09T06:00:29.786Z,5.93
2023-02-09T06:03:32.364Z,6.60
2023-02-09T06:06:35.245Z,6.22
2023-02-09T06:09:37.306Z,6.18
2023-02-09T06:12:41.284Z,7.70
2023-02-09T06:15:43.426Z,9.52
2023-02-09T06:18:49.364Z,9.15
2023-02-09T06:21:54.627Z,8.20
2023-02-09T06:25:03.020Z,8.63
2023-02-09T06:28:10.572Z,7.00
2023-02-09T06:31:19.280Z,7.07
2023-02-09T06:34:26.011Z,6.18
2023-02-09T06:37:32.528Z,7.05
2023-02-09T06:40:35.062Z,6.85
2023-02-09T06:43:42.058Z,6.87
2023-02-09T06:46:44.646Z,7.82
2023-02-09T06:49:50.704Z,7.80
2023-02-09T06:52:54.425Z,7.80
2023-02-09T06:56:06.036Z,7.57
2023-02-09T06:59:21.182Z,8.32
2023-02-09T07:02:27.799Z,8.00
2023-02-09T07:05:35.855Z,9.65
2023-02-09T07:08:39.386Z,10.35
2023-02-09T07:11:53.509Z,9.60
2023-02-09T07:14:59.068Z,9.03
2023-02-09T07:18:17.320Z,9.18
2023-02-09T07:21:21.843Z,10.40
2023-02-09T07:24:25.237Z,9.87
2023-02-09T07:27:37.797Z,8.80
2023-02-09T07:30:49.342Z,8.45
2023-02-09T07:37:31.821Z,9.32
2023-02-09T07:40:38.278Z,14.23
2023-02-09T07:43:43.828Z,12.05
2023-02-09T07:46:48.972Z,10.37
2023-02-09T07:49:54.063Z,10.10
2023-02-09T07:52:56.841Z,12.82
2023-02-09T07:55:58.585Z,11.40
2023-02-09T07:59:00.680Z,13.02
2023-02-09T08:02:02.947Z,11.65
2023-02-09T08:05:09.484Z,11.35
2023-02-09T08:08:11.544Z,12.13
2023-02-09T08:11:14.986Z,12.68
2023-02-09T08:14:22.909Z,13.27
2023-02-09T08:17:28.070Z,14.17
2023-02-09T08:20:32.115Z,13.40
2023-02-09T08:23:35.033Z,11.90
2023-02-09T08:26:36.729Z,11.43
2023-02-09T08:29:38.378Z,12.18
2023-02-09T08:32:40.932Z,11.18
2023-02-09T08:35:43.953Z,11.73
2023-02-09T08:38:46.317Z,10.65
2023-02-09T08:41:48.372Z,11.35
2023-02-09T08:44:49.947Z,11.60
2023-02-09T08:47:51.607Z,10.80
2023-02-09T08:50:53.817Z,11.45
2023-02-09T08:53:55.403Z,11.63
2023-02-09T08:56:57.035Z,10.67
2023-02-09T08:59:58.647Z,11.00
2023-02-09T09:03:05.753Z,10.70
2023-02-09T09:06:11.604Z,11.73
2023-02-09T09:09:13.707Z,12.07
2023-02-09T09:12:15.236Z,11.65
2023-02-09T09:15:17.486Z,12.05
2023-02-09T09:18:20.384Z,11.90
2023-02-09T09:21:22.558Z,12.32
2023-02-09T09:24:28.595Z,12.45
2023-02-09T09:27:32.742Z,11.63
2023-02-09T09:30:34.805Z,11.07
2023-02-09T09:33:37.267Z,12.45
2023-02-09T09:36:38.807Z,13.13
2023-02-09T09:39:40.856Z,12.98
2023-02-09T09:42:51.924Z,13.55
2023-02-09T09:45:53.736Z,13.98
2023-02-09T09:48:57.253Z,13.70
2023-02-09T09:52:23.639Z,13.60
2023-02-09T09:55:27.680Z,13.18
2023-02-09T09:58:32.704Z,13.67
2023-02-09T10:01:34.390Z,14.02
2023-02-09T10:04:36.127Z,13.75
2023-02-09T10:07:40.846Z,14.00
2023-02-09T10:10:56.791Z,13.63
2023-02-09T10:13:58.470Z,14.32
2023-02-09T10:17:00.839Z,13.52
2023-02-09T10:20:06.258Z,13.87
2023-02-09T10:23:35.213Z,14.50
2023-02-09T10:26:40.051Z,13.57
2023-02-09T10:29:42.015Z,13.93
2023-02-09T10:32:44.850Z,12.95
2023-02-09T10:35:51.950Z,14.23
2023-02-09T10:39:22.755Z,14.82
2023-02-09T10:42:31.742Z,13.45
2023-02-09T10:45:41.926Z,14.25
2023-02-09T10:48:46.558Z,14.48
2023-02-09T10:51:51.152Z,14.73
2023-02-09T10:55:00.375Z,15.93
2023-02-09T10:58:11.632Z,14.65
2023-02-09T11:01:24.404Z,15.57
2023-02-09T11:04:36.730Z,13.93
2023-02-09T11:07:41.997Z,14.10
2023-02-09T11:11:03.058Z,13.95
2023-02-09T11:14:19.632Z,13.27
2023-02-09T11:17:45.656Z,13.82
2023-02-09T11:20:55.558Z,13.45
2023-02-09T11:24:21.615Z,12.73
2023-02-09T11:27:48.947Z,13.27
2023-02-09T11:31:02.774Z,12.38
2023-02-09T11:34:37.796Z,13.27
2023-02-09T11:38:17.716Z,13.27
2023-02-09T11:41:51.702Z,13.13
2023-02-09T11:45:10.160Z,13.00
2023-02-09T11:48:17.864Z,13.00
2023-02-09T11:51:22.459Z,13.50
2023-02-09T11:54:29.677Z,14.85
2023-02-09T11:57:44.119Z,14.30
2023-02-09T12:01:04.282Z,13.63
2023-02-09T12:04:31.601Z,13.93
2023-02-09T12:07:36.609Z,14.73
2023-02-09T12:10:45.667Z,13.15
2023-02-09T12:14:28.344Z,14.70
2023-02-09T12:17:35.381Z,14.57
2023-02-09T12:20:37.311Z,14.02
2023-02-09T12:23:38.862Z,13.88
2023-02-09T12:26:43.953Z,13.88
2023-02-09T12:29:45.581Z,13.80
2023-02-09T12:32:47.189Z,14.98
2023-02-09T12:36:03.764Z,14.75
2023-02-09T12:39:25.990Z,14.73
2023-02-09T12:42:30.290Z,14.57
2023-02-09T12:45:39.684Z,13.52
2023-02-09T12:49:08.826Z,14.48
2023-02-09T12:52:14.479Z,14.18
2023-02-09T12:55:23.394Z,14.43
2023-02-09T12:59:12.961Z,14.55
2023-02-09T13:02:22.018Z,15.13
2023-02-09T13:05:23.501Z,14.98
2023-02-09T13:08:35.135Z,15.05
2023-02-09T13:11:49.247Z,14.70
2023-02-09T13:14:51.560Z,14.98
2023-02-09T13:18:20.503Z,14.73
2023-02-09T13:21:43.969Z,14.20
2023-02-09T13:24:52.824Z,15.35
2023-02-09T13:27:54.522Z,14.55
2023-02-09T13:30:56.206Z,14.85
2023-02-09T13:34:02.445Z,14.40
2023-02-09T13:37:19.911Z,15.27
2023-02-09T13:40:31.494Z,13.70
2023-02-09T13:43:38.291Z,14.63
2023-02-09T13:46:40.888Z,14.25
2023-02-09T13:49:54.630Z,14.30
2023-02-09T13:53:11.652Z,13.77
2023-02-09T13:56:15.172Z,14.48
2023-02-09T13:59:17.703Z,13.57
2023-02-09T14:02:26.204Z,14.10
2023-02-09T14:06:13.329Z,13.90
2023-02-09T14:09:21.002Z,14.45
2023-02-09T14:12:52.414Z,14.85
2023-02-09T14:16:07.662Z,14.13
2023-02-09T14:19:26.326Z,14.05
2023-02-09T14:22:34.337Z,13.82
2023-02-09T14:25:37.737Z,14.68
2023-02-09T14:28:40.617Z,14.32
2023-02-09T14:31:45.036Z,13.73
2023-02-09T14:34:47.264Z,14.07
2023-02-09T14:37:50.607Z,13.57
2023-02-09T14:40:52.119Z,15.02
2023-02-09T14:44:17.911Z,14.43
2023-02-09T14:47:31.548Z,15.30
2023-02-09T14:50:33.088Z,14.38
2023-02-09T14:53:34.703Z,14.75
2023-02-09T14:56:36.212Z,13.32
2023-02-09T14:59:37.795Z,14.02
2023-02-09T15:02:39.326Z,14.13
2023-02-09T15:05:41.655Z,14.48
2023-02-09T15:08:43.507Z,13.47
2023-02-09T15:12:03.297Z,14.43
2023-02-09T15:15:05.165Z,13.75
2023-02-09T15:18:07.229Z,13.67
2023-02-09T15:21:08.757Z,14.32
2023-02-09T15:24:10.387Z,14.70
2023-02-09T15:27:29.373Z,13.95
2023-02-09T15:30:34.415Z,13.95
2023-02-09T15:33:35.974Z,15.13
2023-02-09T15:36:37.950Z,13.80
2023-02-09T15:39:39.514Z,15.67
2023-02-09T15:43:00.297Z,16.23
2023-02-09T15:46:20.452Z,15.10
2023-02-09T15:49:22.910Z,15.00
2023-02-09T15:52:24.502Z,15.05
2023-02-09T15:55:26.904Z,15.98
2023-02-09T15:58:37.303Z,15.50
2023-02-09T16:01:39.137Z,15.30
2023-02-09T16:04:40.824Z,16.10
2023-02-09T16:07:42.725Z,14.25
2023-02-09T16:10:46.147Z,30.23
2023-02-09T16:13:48.435Z,19.85
2023-02-09T16:16:50.687Z,14.93
2023-02-09T16:19:52.242Z,15.97
2023-02-09T16:22:56.058Z,16.80
2023-02-09T16:26:01.385Z,16.20
2023-02-09T16:29:03.577Z,17.98
2023-02-09T16:32:13.717Z,16.77
2023-02-09T16:35:17.399Z,16.73
2023-02-09T16:38:23.658Z,18.35
2023-02-09T16:41:43.840Z,17.03
2023-02-09T16:44:45.394Z,16.75
2023-02-09T16:51:25.086Z,17.53
2023-02-09T16:54:29.986Z,18.52
2023-02-09T16:57:31.637Z,17.20
2023-02-09T17:00:38.315Z,18.88
2023-02-09T17:03:43.760Z,17.58
2023-02-09T17:06:49.015Z,18.52
2023-02-09T17:09:50.704Z,19.55
2023-02-09T17:12:53.886Z,19.30
2023-02-09T17:16:02.080Z,20.33
2023-02-09T17:19:08.176Z,21.42
2023-02-09T17:22:13.327Z,18.87
2023-02-09T17:25:16.636Z,18.77
2023-02-09T17:28:19.758Z,19.20
2023-02-09T17:31:30.542Z,19.73
2023-02-09T17:34:32.988Z,20.63
2023-02-09T17:37:36.702Z,20.17
2023-02-09T17:40:38.693Z,20.38
2023-02-09T17:43:40.234Z,20.80
2023-02-09T17:46:43.831Z,21.20
2023-02-09T17:49:46.260Z,22.35
2023-02-09T17:52:49.148Z,20.57
2023-02-09T17:55:54.017Z,21.13
2023-02-09T17:58:57.262Z,20.15
2023-02-09T18:01:58.883Z,19.45
2023-02-09T18:05:00.545Z,20.05
2023-02-09T18:08:02.164Z,18.63
2023-02-09T18:11:11.591Z,19.15
2023-02-09T18:14:16.958Z,20.37
2023-02-09T18:17:19.315Z,20.13
2023-02-09T18:20:25.733Z,20.58
2023-02-09T18:23:27.558Z,20.77
2023-02-09T18:26:29.658Z,20.92
2023-02-09T18:29:32.749Z,21.42
2023-02-09T18:32:35.393Z,20.40
2023-02-09T18:35:42.752Z,21.23
2023-02-09T18:38:47.100Z,21.58
2023-02-09T18:41:54.556Z,24.15
2023-02-09T18:44:56.706Z,24.30
2023-02-09T18:47:59.019Z,32.75
2023-02-09T18:51:00.577Z,25.13
2023-02-09T18:54:05.614Z,23.17
2023-02-09T18:57:07.570Z,20.70
2023-02-09T19:00:11.481Z,20.58
2023-02-09T19:03:14.068Z,21.10
2023-02-09T19:06:19.172Z,20.38
2023-02-09T19:09:21.081Z,21.00
2023-02-09T19:12:22.746Z,23.23
2023-02-09T19:15:25.869Z,23.30
2023-02-09T19:18:27.950Z,23.45
2023-02-09T19:21:29.733Z,24.10
2023-02-09T19:24:31.682Z,25.10
2023-02-09T19:27:34.295Z,26.33
2023-02-09T19:30:36.314Z,24.48
2023-02-09T19:33:39.485Z,24.75
2023-02-09T19:36:41.125Z,22.77
2023-02-09T19:39:57.246Z,24.50
2023-02-09T19:42:59.006Z,24.38
2023-02-09T19:46:00.656Z,24.67
2023-02-09T19:49:03.781Z,23.25
2023-02-09T19:52:06.484Z,22.77
2023-02-09T19:55:11.728Z,25.87
2023-02-09T19:58:13.292Z,22.70
2023-02-09T20:01:15.261Z,21.95
2023-02-09T20:04:19.355Z,21.40
2023-02-09T20:07:21.230Z,21.75
2023-02-09T20:10:23.967Z,21.63
2023-02-09T20:13:25.675Z,20.20
2023-02-09T20:16:31.700Z,19.87
2023-02-09T20:19:39.495Z,19.02
2023-02-09T20:22:41.035Z,20.17
2023-02-09T20:25:43.844Z,19.57
2023-02-09T20:28:45.922Z,20.10
2023-02-09T20:31:47.649Z,19.90
2023-02-09T20:34:49.237Z,20.05
2023-02-09T20:37:52.975Z,20.45
2023-02-09T20:40:54.696Z,21.25
2023-02-09T20:44:15.420Z,19.45
2023-02-09T20:47:17.575Z,18.77
2023-02-09T20:50:20.041Z,19.95
2023-02-09T20:53:22.508Z,20.75
2023-02-09T20:56:24.126Z,20.03
2023-02-09T20:59:26.043Z,19.63
2023-02-09T21:02:27.986Z,20.83
2023-02-09T21:05:29.674Z,21.25
2023-02-09T21:08:31.622Z,21.05
2023-02-09T21:11:33.431Z,22.48
2023-02-09T21:14:42.230Z,22.88
2023-02-09T21:17:48.782Z,22.90
2023-02-09T21:20:51.599Z,28.33
2023-02-09T21:23:53.986Z,25.48
2023-02-09T21:26:55.518Z,22.20
2023-02-09T21:29:57.250Z,22.00
2023-02-09T21:33:00.387Z,20.40
2023-02-09T21:36:02.926Z,20.40
2023-02-09T21:39:04.470Z,19.98
2023-02-09T21:42:24.457Z,21.45
2023-02-09T21:45:26.474Z,20.52
2023-02-09T21:48:28.297Z,21.27
2023-02-09T21:51:29.871Z,19.35
2023-02-09T21:54:33.737Z,19.42
2023-02-09T21:57:36.308Z,20.20
2023-02-09T22:00:37.839Z,18.63
2023-02-09T22:03:40.263Z,18.92
2023-02-09T22:06:41.883Z,19.13
2023-02-09T22:09:43.467Z,19.40
2023-02-09T22:12:45.787Z,18.80
2023-02-09T22:15:47.321Z,20.52
2023-02-09T22:18:49.204Z,19.87
2023-02-09T22:21:51.079Z,19.45
2023-02-09T22:24:52.659Z,21.77
2023-02-09T22:27:54.286Z,20.50
2023-02-09T22:30:56.520Z,21.73
2023-02-09T22:33:58.569Z,23.42
2023-02-09T22:37:00.105Z,23.55
2023-02-09T22:40:01.667Z,23.73
2023-02-09T22:43:03.406Z,22.50
2023-02-09T22:46:05.126Z,22.48
2023-02-09T22:49:09.461Z,23.53
2023-02-09T22:52:11.450Z,23.50
2023-02-09T22:55:12.989Z,25.13
2023-02-09T22:58:14.636Z,23.60
2023-02-09T23:01:16.256Z,24.08
2023-02-09T23:04:17.974Z,23.25
2023-02-09T23:07:19.514Z,23.58
2023-02-09T23:10:22.514Z,23.75
2023-02-09T23:13:24.034Z,23.35
2023-02-09T23:16:28.912Z,22.52
2023-02-09T23:19:30.471Z,22.97
2023-02-09T23:22:31.976Z,23.08
2023-02-09T23:25:33.532Z,21.48
2023-02-09T23:28:35.209Z,22.33
2023-02-09T23:31:37.192Z,22.15
2023-02-09T23:34:38.774Z,21.73
2023-02-09T23:37:40.334Z,23.02
2023-02-09T23:40:41.942Z,22.40
2023-02-09T23:43:43.902Z,21.48
2023-02-09T23:46:45.798Z,21.30
2023-02-09T23:49:47.519Z,19.97
2023-02-09T23:52:49.080Z,20.90
2023-02-09T23:55:52.080Z,20.67
2023-02-09T23:58:54.418Z,19.50
